createdAt,value
2019-01-26T00:01:04.545Z,-7.00
2019-01-26T00:06:00.615Z,-7.10
2019-01-26T00:10:56.785Z,-7.20
2019-01-26T00:15:52.617Z,-7.30
2019-01-26T00:20:48.518Z,-7.30
2019-01-26T00:25:44.357Z,-7.30
2019-01-26T00:30:40.535Z,-7.30
2019-01-26T00:35:36.553Z,-7.40
2019-01-26T00:40:32.661Z,-7.40
2019-01-26T00:45:28.693Z,-7.50
2019-01-26T00:50:24.536Z,-7.60
2019-01-26T00:55:20.486Z,-7.60
2019-01-26T01:00:17.760Z,-7.70
2019-01-26T01:05:13.973Z,-7.80
2019-01-26T01:10:12.093Z,-7.80
2019-01-26T01:15:08.868Z,-7.80
2019-01-26T01:20:05.973Z,-7.80
2019-01-26T01:25:01.838Z,-7.90
2019-01-26T01:29:57.671Z,-7.90
2019-01-26T01:34:53.818Z,-8.00
2019-01-26T01:39:49.877Z,-8.10
2019-01-26T01:44:46.120Z,-8.10
2019-01-26T01:49:42.085Z,-8.20
2019-01-26T01:54:37.872Z,-8.30
2019-01-26T01:59:33.875Z,-8.30
2019-01-26T02:04:29.729Z,-8.30
2019-01-26T02:09:25.656Z,-8.30
2019-01-26T02:14:21.500Z,-8.30
2019-01-26T02:19:17.519Z,-8.30
2019-01-26T02:24:13.489Z,-8.30
2019-01-26T02:29:09.707Z,-8.40
2019-01-26T02:34:06.177Z,-8.40
2019-01-26T02:39:02.070Z,-8.40
2019-01-26T02:43:59.627Z,-8.50
2019-01-26T02:48:55.578Z,-8.50
2019-01-26T02:53:51.616Z,-8.40
2019-01-26T02:58:47.593Z,-8.30
2019-01-26T03:03:43.445Z,-8.30
2019-01-26T03:08:39.356Z,-8.30
2019-01-26T03:13:36.926Z,-8.30
2019-01-26T03:18:32.843Z,-8.20
2019-01-26T03:23:28.768Z,-8.20
2019-01-26T03:28:24.814Z,-8.20
2019-01-26T03:33:20.849Z,-8.20
2019-01-26T03:38:17.922Z,-8.10
2019-01-26T03:43:13.809Z,-8.20
2019-01-26T03:48:09.968Z,-8.30
2019-01-26T03:53:06.003Z,-8.20
2019-01-26T03:58:01.980Z,-8.20
2019-01-26T04:02:58.024Z,-8.10
2019-01-26T04:07:53.810Z,-8.10
2019-01-26T04:12:49.663Z,-8.10
2019-01-26T04:17:45.645Z,-8.00
2019-01-26T04:22:41.660Z,-8.00
2019-01-26T04:27:37.763Z,-7.90
2019-01-26T04:32:33.684Z,-7.80
2019-01-26T04:37:29.670Z,-7.80
2019-01-26T04:42:25.582Z,-7.70
2019-01-26T04:47:21.511Z,-7.80
2019-01-26T04:52:17.500Z,-7.80
2019-01-26T04:57:14.473Z,-7.70
2019-01-26T05:02:10.553Z,-7.70
2019-01-26T05:07:06.416Z,-7.70
2019-01-26T05:12:02.536Z,-7.70
2019-01-26T05:16:58.314Z,-7.60
2019-01-26T05:21:54.457Z,-7.50
2019-01-26T05:26:50.500Z,-7.40
2019-01-26T05:31:46.605Z,-7.30
2019-01-26T05:36:42.425Z,-7.30
2019-01-26T05:41:38.116Z,-7.20
2019-01-26T05:46:34.109Z,-7.20
2019-01-26T05:51:30.214Z,-7.20
2019-01-26T05:56:26.168Z,-7.20
2019-01-26T06:01:22.187Z,-7.10
2019-01-26T06:06:17.976Z,-7.00
2019-01-26T06:11:13.873Z,-6.80
2019-01-26T06:16:09.817Z,-6.80
2019-01-26T06:21:05.725Z,-6.80
2019-01-26T06:26:01.600Z,-6.70
2019-01-26T06:30:58.073Z,-6.60
2019-01-26T06:35:54.221Z,-6.60
2019-01-26T06:40:50.321Z,-6.60
2019-01-26T06:45:47.194Z,-6.50
2019-01-26T06:50:44.193Z,-6.50
2019-01-26T06:55:40.074Z,-6.40
2019-01-26T07:00:36.241Z,-6.40
2019-01-26T07:05:54.274Z,-6.30
2019-01-26T07:10:51.158Z,-6.20
2019-01-26T07:15:47.671Z,-6.20
2019-01-26T07:20:43.439Z,-6.20
2019-01-26T07:25:39.318Z,-6.10
2019-01-26T07:30:35.286Z,-6.00
2019-01-26T07:35:31.197Z,-5.90
2019-01-26T07:40:27.135Z,-5.70
2019-01-26T07:45:23.260Z,-5.60
2019-01-26T07:50:20.262Z,-5.50
2019-01-26T07:55:16.410Z,-5.30
2019-01-26T08:00:15.316Z,-5.20
2019-01-26T08:05:12.273Z,-5.00
2019-01-26T08:10:12.201Z,-4.90
2019-01-26T08:15:10.134Z,-4.80
2019-01-26T08:20:08.123Z,-4.60
2019-01-26T08:25:04.969Z,-4.50
2019-01-26T08:30:01.110Z,-4.40
2019-01-26T08:34:56.998Z,-4.30
2019-01-26T08:39:53.233Z,-4.20
2019-01-26T08:44:49.141Z,-4.00
2019-01-26T08:49:46.074Z,-3.80
2019-01-26T08:54:41.890Z,-3.60
2019-01-26T08:59:37.721Z,-3.50
2019-01-26T09:04:34.497Z,-3.40
2019-01-26T09:09:30.628Z,-3.30
2019-01-26T09:14:26.420Z,-3.30
2019-01-26T09:19:22.621Z,-3.30
2019-01-26T09:24:18.724Z,-3.10
2019-01-26T09:29:14.597Z,-2.90
2019-01-26T09:34:11.010Z,-2.60
2019-01-26T09:39:10.413Z,-2.50
2019-01-26T09:44:07.551Z,-2.30
2019-01-26T09:49:03.588Z,-2.00
2019-01-26T09:53:59.799Z,-1.80
2019-01-26T09:58:55.647Z,-1.60
2019-01-26T10:03:51.573Z,-1.50
2019-01-26T10:08:47.735Z,-1.40
2019-01-26T10:13:43.501Z,-1.20
2019-01-26T10:18:39.377Z,-0.80
2019-01-26T10:23:35.224Z,-0.60
2019-01-26T10:28:31.431Z,-0.30
2019-01-26T10:33:27.353Z,-0.10
2019-01-26T10:38:23.588Z,0.30
2019-01-26T10:43:20.394Z,0.60
2019-01-26T10:48:16.161Z,0.70
2019-01-26T10:53:12.496Z,1.10
2019-01-26T10:58:08.469Z,1.60
2019-01-26T11:03:05.242Z,1.80
2019-01-26T11:08:01.128Z,1.90
2019-01-26T11:12:56.950Z,2.00
2019-01-26T11:17:53.021Z,1.90
2019-01-26T11:22:48.924Z,2.00
2019-01-26T11:27:45.572Z,2.00
2019-01-26T11:32:41.600Z,2.30
2019-01-26T11:37:37.550Z,2.80
2019-01-26T11:42:33.337Z,3.40
2019-01-26T11:47:29.660Z,3.90
2019-01-26T11:52:25.839Z,4.20
2019-01-26T11:57:24.097Z,4.60
2019-01-26T12:02:29.747Z,5.00
2019-01-26T12:07:27.083Z,5.40
2019-01-26T12:12:23.103Z,5.70
2019-01-26T12:17:19.133Z,6.10
2019-01-26T12:22:14.887Z,6.40
2019-01-26T12:27:10.860Z,6.70
2019-01-26T12:32:07.458Z,7.00
2019-01-26T12:37:03.503Z,6.90
2019-01-26T12:42:00.734Z,6.60
2019-01-26T12:46:56.822Z,6.70
2019-01-26T12:51:53.037Z,6.60
2019-01-26T12:56:49.121Z,6.20
2019-01-26T13:01:46.305Z,5.80
2019-01-26T13:06:43.363Z,5.40
2019-01-26T13:11:41.122Z,5.20
2019-01-26T13:16:37.509Z,5.30
2019-01-26T13:21:33.318Z,5.10
2019-01-26T13:26:29.260Z,4.90
2019-01-26T13:31:25.044Z,4.90
2019-01-26T13:36:22.409Z,4.80
2019-01-26T13:41:18.365Z,5.00
2019-01-26T13:46:14.551Z,5.20
2019-01-26T13:51:13.130Z,5.30
2019-01-26T13:56:08.447Z,5.20
2019-01-26T14:01:04.562Z,5.00
2019-01-26T14:06:01.524Z,4.70
2019-01-26T14:10:57.320Z,4.80
2019-01-26T14:15:53.319Z,4.60
2019-01-26T14:20:50.323Z,4.40
2019-01-26T14:25:46.950Z,4.20
2019-01-26T14:30:51.219Z,4.10
2019-01-26T14:35:47.162Z,3.60
2019-01-26T14:40:46.805Z,3.40
2019-01-26T14:45:43.285Z,3.00
2019-01-26T14:50:39.391Z,2.80
2019-01-26T14:55:36.007Z,2.60
2019-01-26T15:00:33.244Z,2.40
2019-01-26T15:05:29.713Z,2.30
2019-01-26T15:10:25.732Z,2.20
2019-01-26T15:15:21.729Z,2.10
2019-01-26T15:20:22.989Z,1.90
2019-01-26T15:25:18.951Z,1.70
2019-01-26T15:30:20.717Z,1.60
2019-01-26T15:35:16.561Z,1.50
2019-01-26T15:40:12.521Z,1.40
2019-01-26T15:45:13.038Z,1.20
2019-01-26T15:50:13.224Z,1.00
2019-01-26T15:55:11.032Z,0.90
2019-01-26T16:00:09.330Z,0.70
2019-01-26T16:05:05.949Z,0.50
2019-01-26T16:10:01.773Z,0.40
2019-01-26T16:14:57.594Z,0.40
2019-01-26T16:19:53.542Z,0.30
2019-01-26T16:24:50.371Z,0.20
2019-01-26T16:29:46.301Z,0.10
2019-01-26T16:34:42.812Z,0.10
2019-01-26T16:39:44.742Z,0.00
2019-01-26T16:44:41.125Z,-0.10
2019-01-26T16:49:39.801Z,-0.10
2019-01-26T16:54:35.993Z,-0.20
2019-01-26T16:59:31.989Z,-0.20
2019-01-26T17:04:27.962Z,-0.30
2019-01-26T17:09:24.845Z,-0.30
2019-01-26T17:14:21.287Z,-0.30
2019-01-26T17:19:17.412Z,-0.30
2019-01-26T17:24:14.206Z,-0.60
2019-01-26T17:29:10.691Z,-0.70
2019-01-26T17:34:07.546Z,-0.70
2019-01-26T17:39:07.600Z,-0.80
2019-01-26T17:44:04.656Z,-0.80
2019-01-26T17:49:00.284Z,-0.80
2019-01-26T17:53:55.957Z,-0.80
2019-01-26T17:58:52.819Z,-0.90
2019-01-26T18:03:48.719Z,-0.90
2019-01-26T18:08:45.116Z,-0.90
2019-01-26T18:13:43.080Z,-0.90
2019-01-26T18:18:39.845Z,-1.00
2019-01-26T18:23:35.814Z,-1.00
2019-01-26T18:28:31.937Z,-1.00
2019-01-26T18:33:28.015Z,-1.00
2019-01-26T18:38:23.633Z,-1.10
2019-01-26T18:43:19.285Z,-1.10
2019-01-26T18:48:15.036Z,-1.10
2019-01-26T18:53:11.557Z,-1.10
2019-01-26T18:58:07.278Z,-1.10
2019-01-26T19:03:07.293Z,-1.10
2019-01-26T19:08:03.189Z,-1.20
2019-01-26T19:12:59.117Z,-1.20
2019-01-26T19:17:55.415Z,-1.20
2019-01-26T19:22:51.626Z,-1.10
2019-01-26T19:27:48.527Z,-1.20
2019-01-26T19:32:45.213Z,-1.20
2019-01-26T19:37:41.144Z,-1.20
2019-01-26T19:42:37.100Z,-1.20
2019-01-26T19:47:33.053Z,-1.20
2019-01-26T19:52:33.229Z,-1.30
2019-01-26T19:57:29.621Z,-1.30
2019-01-26T20:02:25.671Z,-1.30
2019-01-26T20:07:24.302Z,-1.20
2019-01-26T20:12:21.928Z,-1.20
2019-01-26T20:17:19.299Z,-1.30
2019-01-26T20:22:15.152Z,-1.30
2019-01-26T20:27:12.177Z,-1.30
2019-01-26T20:32:08.105Z,-1.40
2019-01-26T20:37:04.312Z,-1.40
2019-01-26T20:42:00.624Z,-1.40
2019-01-26T20:46:57.063Z,-1.30
2019-01-26T20:51:53.294Z,-1.40
2019-01-26T20:56:50.303Z,-1.50
2019-01-26T21:01:46.669Z,-1.60
2019-01-26T21:06:43.577Z,-1.60
2019-01-26T21:11:43.760Z,-1.70
2019-01-26T21:16:45.591Z,-1.70
2019-01-26T21:21:41.632Z,-1.70
2019-01-26T21:26:38.413Z,-1.80
2019-01-26T21:31:34.848Z,-1.90
2019-01-26T21:36:31.199Z,-2.00
2019-01-26T21:41:27.652Z,-2.10
2019-01-26T21:46:23.531Z,-2.10
2019-01-26T21:51:19.658Z,-2.10
2019-01-26T21:56:16.498Z,-2.20
2019-01-26T22:01:12.614Z,-2.20
2019-01-26T22:06:08.833Z,-2.20
2019-01-26T22:11:05.059Z,-2.30
2019-01-26T22:16:00.995Z,-2.30
2019-01-26T22:20:57.316Z,-2.30
2019-01-26T22:25:56.302Z,-2.30
2019-01-26T22:30:54.015Z,-2.30
2019-01-26T22:35:50.196Z,-2.30
2019-01-26T22:40:46.320Z,-2.30
2019-01-26T22:45:42.660Z,-2.20
2019-01-26T22:50:38.664Z,-2.40
2019-01-26T22:55:35.524Z,-2.40
2019-01-26T23:01:12.800Z,-2.40
2019-01-26T23:06:58.209Z,-2.40
2019-01-26T23:12:23.472Z,-2.40
2019-01-26T23:17:55.462Z,-2.30
2019-01-26T23:23:55.059Z,-2.30
2019-01-26T23:29:30.958Z,-2.10
2019-01-26T23:34:27.064Z,-2.10
2019-01-26T23:39:23.132Z,-2.10
2019-01-26T23:44:19.138Z,-2.10
2019-01-26T23:49:15.324Z,-2.10
2019-01-26T23:54:11.970Z,-2.20
2019-01-26T23:59:08.266Z,-2.20
